sensor_id;sensor_type;location;lat;lon;timestamp;P1;durP1;ratioP1;P2;durP2;ratioP2
3503;SDS011;1766;53.490;10.174;2023-02-28T00:01:59;9.77;;;5.57;;
3503;SDS011;1766;53.490;10.174;2023-02-28T00:04:00;9.50;;;5.47;;
3503;SDS011;1766;53.490;10.174;2023-02-28T00:06:03;10.33;;;5.70;;
3503;SDS011;1766;53.490;10.174;2023-02-28T00:08:06;9.87;;;4.87;;
3503;SDS011;1766;53.490;10.174;2023-02-28T00:10:08;7.47;;;4.20;;
3503;SDS011;1766;53.490;10.174;2023-02-28T00:12:20;8.63;;;4.77;;
3503;SDS011;1766;53.490;10.174;2023-02-28T00:14:22;7.27;;;4.13;;
3503;SDS011;1766;53.490;10.174;2023-02-28T00:16:23;7.33;;;4.50;;
3503;SDS011;1766;53.490;10.174;2023-02-28T00:18:25;7.87;;;4.23;;
3503;SDS011;1766;53.490;10.174;2023-02-28T00:20:27;5.93;;;3.83;;
3503;SDS011;1766;53.490;10.174;2023-02-28T00:22:29;11.33;;;4.77;;
3503;SDS011;1766;53.490;10.174;2023-02-28T00:24:31;5.80;;;4.13;;
3503;SDS011;1766;53.490;10.174;2023-02-28T00:26:33;8.50;;;4.13;;
3503;SDS011;1766;53.490;10.174;2023-02-28T00:28:37;9.50;;;4.00;;
3503;SDS011;1766;53.490;10.174;2023-02-28T00:30:39;14.77;;;4.37;;
3503;SDS011;1766;53.490;10.174;2023-02-28T00:32:41;6.30;;;4.07;;
3503;SDS011;1766;53.490;10.174;2023-02-28T00:34:42;9.23;;;4.73;;
3503;SDS011;1766;53.490;10.174;2023-02-28T00:36:44;8.03;;;4.53;;
3503;SDS011;1766;53.490;10.174;2023-02-28T00:38:49;9.50;;;4.60;;
3503;SDS011;1766;53.490;10.174;2023-02-28T00:40:51;10.37;;;4.93;;
3503;SDS011;1766;53.490;10.174;2023-02-28T00:42:53;5.83;;;4.60;;
3503;SDS011;1766;53.490;10.174;2023-02-28T00:44:56;8.03;;;5.43;;
3503;SDS011;1766;53.490;10.174;2023-02-28T00:46:58;8.37;;;4.47;;
3503;SDS011;1766;53.490;10.174;2023-02-28T00:49:01;8.97;;;4.17;;
3503;SDS011;1766;53.490;10.174;2023-02-28T00:51:03;5.37;;;3.70;;
3503;SDS011;1766;53.490;10.174;2023-02-28T00:53:05;12.07;;;4.57;;
3503;SDS011;1766;53.490;10.174;2023-02-28T00:55:07;12.97;;;4.63;;
3503;SDS011;1766;53.490;10.174;2023-02-28T00:57:19;6.33;;;4.20;;
3503;SDS011;1766;53.490;10.174;2023-02-28T00:59:21;10.20;;;4.57;;
3503;SDS011;1766;53.490;10.174;2023-02-28T01:01:24;7.97;;;4.60;;
3503;SDS011;1766;53.490;10.174;2023-02-28T01:03:26;9.63;;;4.80;;
3503;SDS011;1766;53.490;10.174;2023-02-28T01:05:28;7.00;;;4.70;;
3503;SDS011;1766;53.490;10.174;2023-02-28T01:07:30;11.83;;;4.70;;
3503;SDS011;1766;53.490;10.174;2023-02-28T01:09:31;12.63;;;5.43;;
3503;SDS011;1766;53.490;10.174;2023-02-28T01:11:34;9.57;;;5.00;;
3503;SDS011;1766;53.490;10.174;2023-02-28T01:13:36;11.20;;;5.13;;
3503;SDS011;1766;53.490;10.174;2023-02-28T01:15:38;9.50;;;5.20;;
3503;SDS011;1766;53.490;10.174;2023-02-28T01:17:45;11.27;;;5.70;;
3503;SDS011;1766;53.490;10.174;2023-02-28T01:19:47;11.97;;;6.00;;
3503;SDS011;1766;53.490;10.174;2023-02-28T01:21:49;10.40;;;5.63;;
3503;SDS011;1766;53.490;10.174;2023-02-28T01:23:50;9.33;;;5.87;;
3503;SDS011;1766;53.490;10.174;2023-02-28T01:25:52;14.67;;;5.87;;
3503;SDS011;1766;53.490;10.174;2023-02-28T01:27:55;11.80;;;6.13;;
3503;SDS011;1766;53.490;10.174;2023-02-28T01:29:57;11.83;;;6.40;;
3503;SDS011;1766;53.490;10.174;2023-02-28T01:31:59;12.40;;;6.10;;
3503;SDS011;1766;53.490;10.174;2023-02-28T01:34:02;11.27;;;5.90;;
3503;SDS011;1766;53.490;10.174;2023-02-28T01:36:05;12.37;;;6.47;;
3503;SDS011;1766;53.490;10.174;2023-02-28T01:38:11;9.20;;;5.53;;
3503;SDS011;1766;53.490;10.174;2023-02-28T01:40:13;10.90;;;6.30;;
3503;SDS011;1766;53.490;10.174;2023-02-28T01:42:21;8.63;;;5.30;;
3503;SDS011;1766;53.490;10.174;2023-02-28T01:46:56;14.73;;;5.80;;
3503;SDS011;1766;53.490;10.174;2023-02-28T01:49:00;10.90;;;5.60;;
3503;SDS011;1766;53.490;10.174;2023-02-28T01:51:08;12.97;;;5.83;;
3503;SDS011;1766;53.490;10.174;2023-02-28T01:53:15;13.47;;;6.10;;
3503;SDS011;1766;53.490;10.174;2023-02-28T01:55:21;11.57;;;5.50;;
3503;SDS011;1766;53.490;10.174;2023-02-28T01:57:29;10.47;;;5.37;;
3503;SDS011;1766;53.490;10.174;2023-02-28T01:59:38;12.53;;;5.67;;
3503;SDS011;1766;53.490;10.174;2023-02-28T02:01:46;11.10;;;5.27;;
3503;SDS011;1766;53.490;10.174;2023-02-28T02:03:47;13.33;;;5.37;;
3503;SDS011;1766;53.490;10.174;2023-02-28T02:05:56;10.70;;;5.90;;
3503;SDS011;1766;53.490;10.174;2023-02-28T02:08:01;8.53;;;4.77;;
3503;SDS011;1766;53.490;10.174;2023-02-28T02:10:09;8.87;;;5.23;;
3503;SDS011;1766;53.490;10.174;2023-02-28T02:12:20;9.97;;;5.60;;
3503;SDS011;1766;53.490;10.174;2023-02-28T02:14:37;9.83;;;5.03;;
3503;SDS011;1766;53.490;10.174;2023-02-28T02:16:53;11.97;;;5.37;;
3503;SDS011;1766;53.490;10.174;2023-02-28T02:19:10;8.23;;;5.10;;
3503;SDS011;1766;53.490;10.174;2023-02-28T02:21:44;8.67;;;5.10;;
3503;SDS011;1766;53.490;10.174;2023-02-28T02:24:11;11.27;;;5.07;;
3503;SDS011;1766;53.490;10.174;2023-02-28T02:26:51;8.37;;;4.17;;
3503;SDS011;1766;53.490;10.174;2023-02-28T02:29:16;10.87;;;5.27;;
3503;SDS011;1766;53.490;10.174;2023-02-28T02:31:44;9.10;;;4.77;;
3503;SDS011;1766;53.490;10.174;2023-02-28T02:34:15;9.37;;;4.50;;
3503;SDS011;1766;53.490;10.174;2023-02-28T02:36:33;6.90;;;3.97;;
3503;SDS011;1766;53.490;10.174;2023-02-28T02:38:40;14.90;;;4.33;;
3503;SDS011;1766;53.490;10.174;2023-02-28T02:40:53;8.13;;;4.40;;
3503;SDS011;1766;53.490;10.174;2023-02-28T02:43:08;7.23;;;4.00;;
3503;SDS011;1766;53.490;10.174;2023-02-28T02:45:18;7.83;;;4.40;;
3503;SDS011;1766;53.490;10.174;2023-02-28T02:47:26;8.50;;;4.20;;
3503;SDS011;1766;53.490;10.174;2023-02-28T02:49:33;13.33;;;4.40;;
3503;SDS011;1766;53.490;10.174;2023-02-28T02:51:38;5.87;;;4.07;;
3503;SDS011;1766;53.490;10.174;2023-02-28T02:53:44;9.03;;;4.00;;
3503;SDS011;1766;53.490;10.174;2023-02-28T02:55:51;10.00;;;4.83;;
3503;SDS011;1766;53.490;10.174;2023-02-28T02:57:56;14.90;;;4.90;;
3503;SDS011;1766;53.490;10.174;2023-02-28T03:02:11;9.27;;;4.60;;
3503;SDS011;1766;53.490;10.174;2023-02-28T03:04:17;8.00;;;4.50;;
3503;SDS011;1766;53.490;10.174;2023-02-28T03:06:24;8.33;;;4.10;;
3503;SDS011;1766;53.490;10.174;2023-02-28T03:08:26;9.97;;;4.93;;
3503;SDS011;1766;53.490;10.174;2023-02-28T03:10:31;9.50;;;4.10;;
3503;SDS011;1766;53.490;10.174;2023-02-28T03:12:39;12.23;;;4.57;;
3503;SDS011;1766;53.490;10.174;2023-02-28T03:14:50;11.67;;;5.10;;
3503;SDS011;1766;53.490;10.174;2023-02-28T03:17:10;6.60;;;3.67;;
3503;SDS011;1766;53.490;10.174;2023-02-28T03:19:28;7.67;;;4.23;;
3503;SDS011;1766;53.490;10.174;2023-02-28T03:21:43;5.43;;;3.77;;
3503;SDS011;1766;53.490;10.174;2023-02-28T03:23:55;6.67;;;3.90;;
3503;SDS011;1766;53.490;10.174;2023-02-28T03:26:06;9.20;;;4.40;;
3503;SDS011;1766;53.490;10.174;2023-02-28T03:28:15;11.33;;;4.77;;
3503;SDS011;1766;53.490;10.174;2023-02-28T03:30:29;9.67;;;4.50;;
3503;SDS011;1766;53.490;10.174;2023-02-28T03:32:40;7.67;;;4.40;;
3503;SDS011;1766;53.490;10.174;2023-02-28T03:34:58;7.77;;;4.53;;
3503;SDS011;1766;53.490;10.174;2023-02-28T03:37:10;10.03;;;5.23;;
3503;SDS011;1766;53.490;10.174;2023-02-28T03:39:18;10.07;;;4.40;;
3503;SDS011;1766;53.490;10.174;2023-02-28T03:41:25;6.60;;;4.03;;
3503;SDS011;1766;53.490;10.174;2023-02-28T03:43:35;6.30;;;4.00;;
3503;SDS011;1766;53.490;10.174;2023-02-28T03:45:40;8.93;;;4.00;;
3503;SDS011;1766;53.490;10.174;2023-02-28T03:47:49;7.70;;;4.07;;
3503;SDS011;1766;53.490;10.174;2023-02-28T03:49:55;9.37;;;4.40;;
3503;SDS011;1766;53.490;10.174;2023-02-28T03:52:01;10.20;;;4.53;;
3503;SDS011;1766;53.490;10.174;2023-02-28T03:54:07;6.10;;;3.70;;
3503;SDS011;1766;53.490;10.174;2023-02-28T03:56:14;9.10;;;3.93;;
3503;SDS011;1766;53.490;10.174;2023-02-28T03:58:21;8.57;;;4.37;;
3503;SDS011;1766;53.490;10.174;2023-02-28T04:00:30;8.03;;;4.60;;
3503;SDS011;1766;53.490;10.174;2023-02-28T04:02:35;8.27;;;4.30;;
3503;SDS011;1766;53.490;10.174;2023-02-28T04:04:37;8.40;;;4.60;;
3503;SDS011;1766;53.490;10.174;2023-02-28T04:06:49;7.23;;;4.67;;
3503;SDS011;1766;53.490;10.174;2023-02-28T04:08:52;13.27;;;5.00;;
3503;SDS011;1766;53.490;10.174;2023-02-28T04:10:56;11.60;;;5.17;;
3503;SDS011;1766;53.490;10.174;2023-02-28T04:13:06;11.07;;;4.57;;
3503;SDS011;1766;53.490;10.174;2023-02-28T04:15:08;11.07;;;4.67;;
3503;SDS011;1766;53.490;10.174;2023-02-28T04:17:11;15.90;;;5.60;;
3503;SDS011;1766;53.490;10.174;2023-02-28T04:19:13;8.17;;;5.30;;
3503;SDS011;1766;53.490;10.174;2023-02-28T04:21:15;7.80;;;5.03;;
3503;SDS011;1766;53.490;10.174;2023-02-28T04:23:20;8.00;;;5.27;;
3503;SDS011;1766;53.490;10.174;2023-02-28T04:25:22;8.97;;;5.03;;
3503;SDS011;1766;53.490;10.174;2023-02-28T04:27:27;10.17;;;5.40;;
3503;SDS011;1766;53.490;10.174;2023-02-28T04:29:29;12.13;;;5.90;;
3503;SDS011;1766;53.490;10.174;2023-02-28T04:31:32;13.47;;;5.70;;
3503;SDS011;1766;53.490;10.174;2023-02-28T04:33:34;12.50;;;5.20;;
3503;SDS011;1766;53.490;10.174;2023-02-28T04:35:36;10.77;;;5.10;;
3503;SDS011;1766;53.490;10.174;2023-02-28T04:37:38;8.93;;;4.70;;
3503;SDS011;1766;53.490;10.174;2023-02-28T04:39:40;7.80;;;4.90;;
3503;SDS011;1766;53.490;10.174;2023-02-28T04:41:43;9.90;;;5.20;;
3503;SDS011;1766;53.490;10.174;2023-02-28T04:43:47;7.17;;;4.93;;
3503;SDS011;1766;53.490;10.174;2023-02-28T04:45:48;8.90;;;4.93;;
3503;SDS011;1766;53.490;10.174;2023-02-28T04:47:50;9.97;;;5.10;;
3503;SDS011;1766;53.490;10.174;2023-02-28T04:49:53;16.90;;;6.30;;
3503;SDS011;1766;53.490;10.174;2023-02-28T04:51:55;10.87;;;5.60;;
3503;SDS011;1766;53.490;10.174;2023-02-28T04:53:57;10.37;;;5.07;;
3503;SDS011;1766;53.490;10.174;2023-02-28T04:55:59;12.50;;;5.37;;
3503;SDS011;1766;53.490;10.174;2023-02-28T04:58:01;9.90;;;5.27;;
3503;SDS011;1766;53.490;10.174;2023-02-28T05:00:04;9.57;;;5.10;;
3503;SDS011;1766;53.490;10.174;2023-02-28T05:02:11;9.80;;;5.73;;
3503;SDS011;1766;53.490;10.174;2023-02-28T05:04:13;9.57;;;5.40;;
3503;SDS011;1766;53.490;10.174;2023-02-28T05:06:15;12.20;;;5.80;;
3503;SDS011;1766;53.490;10.174;2023-02-28T05:08:17;10.77;;;6.17;;
3503;SDS011;1766;53.490;10.174;2023-02-28T05:10:19;49.80;;;24.17;;
3503;SDS011;1766;53.490;10.174;2023-02-28T05:12:21;37.80;;;20.10;;
3503;SDS011;1766;53.490;10.174;2023-02-28T05:14:23;18.17;;;9.97;;
3503;SDS011;1766;53.490;10.174;2023-02-28T05:16:26;6.57;;;5.23;;
3503;SDS011;1766;53.490;10.174;2023-02-28T05:18:28;9.30;;;5.53;;
3503;SDS011;1766;53.490;10.174;2023-02-28T05:20:30;10.53;;;5.83;;
3503;SDS011;1766;53.490;10.174;2023-02-28T05:22:32;12.37;;;5.73;;
3503;SDS011;1766;53.490;10.174;2023-02-28T05:24:33;10.23;;;5.33;;
3503;SDS011;1766;53.490;10.174;2023-02-28T05:26:36;11.47;;;5.00;;
3503;SDS011;1766;53.490;10.174;2023-02-28T05:28:40;9.67;;;4.77;;
3503;SDS011;1766;53.490;10.174;2023-02-28T05:30:42;7.23;;;4.90;;
3503;SDS011;1766;53.490;10.174;2023-02-28T05:32:49;12.07;;;5.70;;
3503;SDS011;1766;53.490;10.174;2023-02-28T05:34:52;12.23;;;6.97;;
3503;SDS011;1766;53.490;10.174;2023-02-28T05:36:53;14.33;;;6.47;;
3503;SDS011;1766;53.490;10.174;2023-02-28T05:38:55;9.97;;;5.23;;
3503;SDS011;1766;53.490;10.174;2023-02-28T05:40:57;13.60;;;5.90;;
3503;SDS011;1766;53.490;10.174;2023-02-28T05:42:59;9.97;;;6.43;;
3503;SDS011;1766;53.490;10.174;2023-02-28T05:45:02;19.83;;;8.13;;
3503;SDS011;1766;53.490;10.174;2023-02-28T05:47:04;14.40;;;7.23;;
3503;SDS011;1766;53.490;10.174;2023-02-28T05:49:07;14.83;;;8.03;;
3503;SDS011;1766;53.490;10.174;2023-02-28T05:51:09;12.70;;;7.70;;
3503;SDS011;1766;53.490;10.174;2023-02-28T05:53:12;13.03;;;6.63;;
3503;SDS011;1766;53.490;10.174;2023-02-28T05:55:14;11.00;;;6.43;;
3503;SDS011;1766;53.490;10.174;2023-02-28T05:57:16;15.13;;;6.73;;
3503;SDS011;1766;53.490;10.174;2023-02-28T05:59:17;12.90;;;6.90;;
3503;SDS011;1766;53.490;10.174;2023-02-28T06:01:21;11.17;;;6.00;;
3503;SDS011;1766;53.490;10.174;2023-02-28T06:03:26;11.73;;;5.80;;
3503;SDS011;1766;53.490;10.174;2023-02-28T06:05:29;10.20;;;6.57;;
3503;SDS011;1766;53.490;10.174;2023-02-28T06:07:32;12.93;;;6.40;;
3503;SDS011;1766;53.490;10.174;2023-02-28T06:09:34;9.33;;;5.50;;
3503;SDS011;1766;53.490;10.174;2023-02-28T06:11:36;9.87;;;5.90;;
3503;SDS011;1766;53.490;10.174;2023-02-28T06:13:38;10.37;;;5.57;;
3503;SDS011;1766;53.490;10.174;2023-02-28T06:15:40;13.13;;;5.63;;
3503;SDS011;1766;53.490;10.174;2023-02-28T06:17:42;10.70;;;5.40;;
3503;SDS011;1766;53.490;10.174;2023-02-28T06:19:45;11.20;;;4.80;;
3503;SDS011;1766;53.490;10.174;2023-02-28T06:21:49;12.20;;;5.27;;
3503;SDS011;1766;53.490;10.174;2023-02-28T06:23:52;9.13;;;5.40;;
3503;SDS011;1766;53.490;10.174;2023-02-28T06:25:54;9.50;;;5.80;;
3503;SDS011;1766;53.490;10.174;2023-02-28T06:27:58;9.10;;;5.20;;
3503;SDS011;1766;53.490;10.174;2023-02-28T06:29:59;9.27;;;5.30;;
3503;SDS011;1766;53.490;10.174;2023-02-28T06:32:01;12.30;;;5.80;;
3503;SDS011;1766;53.490;10.174;2023-02-28T06:34:03;10.87;;;5.87;;
3503;SDS011;1766;53.490;10.174;2023-02-28T06:36:06;11.97;;;5.70;;
3503;SDS011;1766;53.490;10.174;2023-02-28T06:38:11;10.87;;;5.97;;
3503;SDS011;1766;53.490;10.174;2023-02-28T06:40:13;11.60;;;5.87;;
3503;SDS011;1766;53.490;10.174;2023-02-28T06:42:15;15.70;;;6.30;;
3503;SDS011;1766;53.490;10.174;2023-02-28T06:44:17;14.33;;;6.10;;
3503;SDS011;1766;53.490;10.174;2023-02-28T06:46:19;17.37;;;7.00;;
3503;SDS011;1766;53.490;10.174;2023-02-28T06:48:22;11.07;;;6.97;;
3503;SDS011;1766;53.490;10.174;2023-02-28T06:50:24;13.77;;;6.97;;
3503;SDS011;1766;53.490;10.174;2023-02-28T06:52:28;14.77;;;7.33;;
3503;SDS011;1766;53.490;10.174;2023-02-28T06:54:31;16.60;;;7.80;;
3503;SDS011;1766;53.490;10.174;2023-02-28T06:56:33;17.27;;;8.10;;
3503;SDS011;1766;53.490;10.174;2023-02-28T06:58:36;14.63;;;7.20;;
3503;SDS011;1766;53.490;10.174;2023-02-28T07:00:39;15.73;;;7.47;;
3503;SDS011;1766;53.490;10.174;2023-02-28T07:02:41;15.30;;;7.53;;
3503;SDS011;1766;53.490;10.174;2023-02-28T07:04:43;13.23;;;7.83;;
3503;SDS011;1766;53.490;10.174;2023-02-28T07:06:45;18.30;;;6.93;;
3503;SDS011;1766;53.490;10.174;2023-02-28T07:08:46;13.70;;;7.73;;
3503;SDS011;1766;53.490;10.174;2023-02-28T07:10:52;15.87;;;8.03;;
3503;SDS011;1766;53.490;10.174;2023-02-28T07:12:54;11.50;;;7.23;;
3503;SDS011;1766;53.490;10.174;2023-02-28T07:14:56;12.80;;;7.20;;
3503;SDS011;1766;53.490;10.174;2023-02-28T07:16:58;14.53;;;7.73;;
3503;SDS011;1766;53.490;10.174;2023-02-28T07:19:00;22.60;;;7.60;;
3503;SDS011;1766;53.490;10.174;2023-02-28T07:21:02;11.60;;;7.47;;
3503;SDS011;1766;53.490;10.174;2023-02-28T07:23:05;14.47;;;7.40;;
3503;SDS011;1766;53.490;10.174;2023-02-28T07:25:07;13.20;;;7.67;;
3503;SDS011;1766;53.490;10.174;2023-02-28T07:27:12;11.37;;;6.77;;
3503;SDS011;1766;53.490;10.174;2023-02-28T07:29:25;14.73;;;7.17;;
3503;SDS011;1766;53.490;10.174;2023-02-28T07:31:28;13.53;;;6.87;;
3503;SDS011;1766;53.490;10.174;2023-02-28T07:33:30;12.70;;;7.83;;
3503;SDS011;1766;53.490;10.174;2023-02-28T07:35:31;12.50;;;7.17;;
3503;SDS011;1766;53.490;10.174;2023-02-28T07:37:33;16.07;;;7.37;;
3503;SDS011;1766;53.490;10.174;2023-02-28T07:39:36;11.17;;;6.70;;
3503;SDS011;1766;53.490;10.174;2023-02-28T07:41:38;11.07;;;7.40;;
3503;SDS011;1766;53.490;10.174;2023-02-28T07:43:44;12.23;;;7.13;;
3503;SDS011;1766;53.490;10.174;2023-02-28T07:45:46;11.33;;;6.93;;
3503;SDS011;1766;53.490;10.174;2023-02-28T07:47:48;12.13;;;7.23;;
3503;SDS011;1766;53.490;10.174;2023-02-28T07:49:50;12.67;;;7.77;;
3503;SDS011;1766;53.490;10.174;2023-02-28T07:51:52;11.80;;;7.57;;
3503;SDS011;1766;53.490;10.174;2023-02-28T07:53:54;12.00;;;7.63;;
3503;SDS011;1766;53.490;10.174;2023-02-28T07:55:56;12.23;;;7.63;;
3503;SDS011;1766;53.490;10.174;2023-02-28T07:58:00;14.50;;;7.37;;
3503;SDS011;1766;53.490;10.174;2023-02-28T08:00:04;13.37;;;7.53;;
3503;SDS011;1766;53.490;10.174;2023-02-28T08:02:09;13.20;;;7.27;;
3503;SDS011;1766;53.490;10.174;2023-02-28T08:04:14;10.13;;;6.90;;
3503;SDS011;1766;53.490;10.174;2023-02-28T08:06:17;18.00;;;7.47;;
3503;SDS011;1766;53.490;10.174;2023-02-28T08:08:21;17.53;;;8.30;;
3503;SDS011;1766;53.490;10.174;2023-02-28T08:10:23;17.57;;;9.23;;
3503;SDS011;1766;53.490;10.174;2023-02-28T08:12:25;12.13;;;7.70;;
3503;SDS011;1766;53.490;10.174;2023-02-28T08:14:27;10.60;;;7.60;;
3503;SDS011;1766;53.490;10.174;2023-02-28T08:16:30;16.10;;;7.30;;
3503;SDS011;1766;53.490;10.174;2023-02-28T08:18:32;18.17;;;9.20;;
3503;SDS011;1766;53.490;10.174;2023-02-28T08:20:34;12.70;;;6.53;;
3503;SDS011;1766;53.490;10.174;2023-02-28T08:22:36;13.07;;;6.87;;
3503;SDS011;1766;53.490;10.174;2023-02-28T08:24:38;9.77;;;6.63;;
3503;SDS011;1766;53.490;10.174;2023-02-28T08:26:41;8.90;;;6.20;;
3503;SDS011;1766;53.490;10.174;2023-02-28T08:28:44;8.57;;;5.87;;
3503;SDS011;1766;53.490;10.174;2023-02-28T08:30:46;10.33;;;5.80;;
3503;SDS011;1766;53.490;10.174;2023-02-28T08:32:50;12.23;;;6.13;;
3503;SDS011;1766;53.490;10.174;2023-02-28T08:34:52;10.50;;;5.97;;
3503;SDS011;1766;53.490;10.174;2023-02-28T08:36:53;8.80;;;5.97;;
3503;SDS011;1766;53.490;10.174;2023-02-28T08:38:56;12.23;;;5.43;;
3503;SDS011;1766;53.490;10.174;2023-02-28T08:40:59;14.50;;;5.63;;
3503;SDS011;1766;53.490;10.174;2023-02-28T08:43:03;11.03;;;5.63;;
3503;SDS011;1766;53.490;10.174;2023-02-28T08:45:05;8.03;;;5.60;;
3503;SDS011;1766;53.490;10.174;2023-02-28T08:47:08;10.17;;;5.40;;
3503;SDS011;1766;53.490;10.174;2023-02-28T08:49:16;12.53;;;5.60;;
3503;SDS011;1766;53.490;10.174;2023-02-28T08:51:19;6.83;;;5.03;;
3503;SDS011;1766;53.490;10.174;2023-02-28T08:53:26;7.17;;;5.37;;
3503;SDS011;1766;53.490;10.174;2023-02-28T08:55:28;9.23;;;5.17;;
3503;SDS011;1766;53.490;10.174;2023-02-28T08:57:29;9.07;;;4.50;;
3503;SDS011;1766;53.490;10.174;2023-02-28T08:59:32;6.77;;;4.60;;
3503;SDS011;1766;53.490;10.174;2023-02-28T09:01:33;26.30;;;13.47;;
3503;SDS011;1766;53.490;10.174;2023-02-28T09:03:36;15.60;;;10.50;;
3503;SDS011;1766;53.490;10.174;2023-02-28T09:05:40;15.93;;;10.57;;
3503;SDS011;1766;53.490;10.174;2023-02-28T09:07:41;9.97;;;5.20;;
3503;SDS011;1766;53.490;10.174;2023-02-28T09:09:43;12.17;;;5.07;;
3503;SDS011;1766;53.490;10.174;2023-02-28T09:11:54;10.50;;;4.13;;
3503;SDS011;1766;53.490;10.174;2023-02-28T09:13:57;4.00;;;3.40;;
3503;SDS011;1766;53.490;10.174;2023-02-28T09:16:00;4.63;;;3.10;;
3503;SDS011;1766;53.490;10.174;2023-02-28T09:18:05;3.90;;;2.83;;
3503;SDS011;1766;53.490;10.174;2023-02-28T09:20:07;5.63;;;3.27;;
3503;SDS011;1766;53.490;10.174;2023-02-28T09:22:11;7.43;;;3.17;;
3503;SDS011;1766;53.490;10.174;2023-02-28T09:24:14;4.67;;;3.10;;
3503;SDS011;1766;53.490;10.174;2023-02-28T09:26:17;7.03;;;2.57;;
3503;SDS011;1766;53.490;10.174;2023-02-28T09:28:21;4.83;;;2.60;;
3503;SDS011;1766;53.490;10.174;2023-02-28T09:30:24;2.90;;;2.47;;
3503;SDS011;1766;53.490;10.174;2023-02-28T09:32:26;4.60;;;2.23;;
3503;SDS011;1766;53.490;10.174;2023-02-28T09:34:27;4.13;;;2.27;;
3503;SDS011;1766;53.490;10.174;2023-02-28T09:36:30;4.43;;;2.40;;
3503;SDS011;1766;53.490;10.174;2023-02-28T09:38:34;4.70;;;2.37;;
3503;SDS011;1766;53.490;10.174;2023-02-28T09:40:37;4.87;;;2.13;;
3503;SDS011;1766;53.490;10.174;2023-02-28T09:42:49;3.50;;;2.00;;
3503;SDS011;1766;53.490;10.174;2023-02-28T09:44:53;2.70;;;1.80;;
3503;SDS011;1766;53.490;10.174;2023-02-28T09:46:58;3.13;;;1.63;;
3503;SDS011;1766;53.490;10.174;2023-02-28T09:49:10;2.60;;;1.57;;
3503;SDS011;1766;53.490;10.174;2023-02-28T09:51:22;4.07;;;2.07;;
3503;SDS011;1766;53.490;10.174;2023-02-28T09:53:36;3.00;;;2.00;;
3503;SDS011;1766;53.490;10.174;2023-02-28T09:55:40;3.50;;;2.00;;
3503;SDS011;1766;53.490;10.174;2023-02-28T09:57:46;2.23;;;1.50;;
3503;SDS011;1766;53.490;10.174;2023-02-28T09:59:53;5.20;;;2.00;;
3503;SDS011;1766;53.490;10.174;2023-02-28T10:02:13;5.17;;;2.57;;
3503;SDS011;1766;53.490;10.174;2023-02-28T10:04:37;3.93;;;1.77;;
3503;SDS011;1766;53.490;10.174;2023-02-28T10:06:46;2.13;;;1.10;;
3503;SDS011;1766;53.490;10.174;2023-02-28T10:08:54;1.23;;;0.97;;
3503;SDS011;1766;53.490;10.174;2023-02-28T10:11:02;1.10;;;0.97;;
3503;SDS011;1766;53.490;10.174;2023-02-28T10:13:13;1.13;;;0.83;;
3503;SDS011;1766;53.490;10.174;2023-02-28T10:15:23;0.97;;;0.50;;
3503;SDS011;1766;53.490;10.174;2023-02-28T10:17:29;0.70;;;0.70;;
3503;SDS011;1766;53.490;10.174;2023-02-28T10:19:40;1.87;;;0.80;;
3503;SDS011;1766;53.490;10.174;2023-02-28T10:21:49;0.80;;;0.63;;
3503;SDS011;1766;53.490;10.174;2023-02-28T10:24:01;1.23;;;1.13;;
3503;SDS011;1766;53.490;10.174;2023-02-28T10:26:09;2.17;;;1.07;;
3503;SDS011;1766;53.490;10.174;2023-02-28T10:28:16;0.90;;;0.80;;
3503;SDS011;1766;53.490;10.174;2023-02-28T10:30:19;1.27;;;0.40;;
3503;SDS011;1766;53.490;10.174;2023-02-28T10:32:22;1.43;;;0.70;;
3503;SDS011;1766;53.490;10.174;2023-02-28T10:34:28;1.40;;;0.40;;
3503;SDS011;1766;53.490;10.174;2023-02-28T10:36:30;0.87;;;0.57;;
3503;SDS011;1766;53.490;10.174;2023-02-28T10:38:32;1.60;;;0.60;;
3503;SDS011;1766;53.490;10.174;2023-02-28T10:40:37;0.87;;;0.60;;
3503;SDS011;1766;53.490;10.174;2023-02-28T10:42:38;1.07;;;0.50;;
3503;SDS011;1766;53.490;10.174;2023-02-28T10:44:40;3.53;;;0.80;;
3503;SDS011;1766;53.490;10.174;2023-02-28T10:46:42;0.73;;;0.70;;
3503;SDS011;1766;53.490;10.174;2023-02-28T10:48:45;1.47;;;1.37;;
3503;SDS011;1766;53.490;10.174;2023-02-28T10:51:02;1.57;;;0.83;;
3503;SDS011;1766;53.490;10.174;2023-02-28T10:55:32;2.23;;;0.70;;
3503;SDS011;1766;53.490;10.174;2023-02-28T10:57:35;2.60;;;0.87;;
3503;SDS011;1766;53.490;10.174;2023-02-28T10:59:37;1.17;;;0.60;;
3503;SDS011;1766;53.490;10.174;2023-02-28T11:01:39;1.00;;;1.00;;
3503;SDS011;1766;53.490;10.174;2023-02-28T11:03:45;1.30;;;1.10;;
3503;SDS011;1766;53.490;10.174;2023-02-28T11:05:47;2.67;;;1.07;;
3503;SDS011;1766;53.490;10.174;2023-02-28T11:07:51;2.93;;;1.87;;
3503;SDS011;1766;53.490;10.174;2023-02-28T11:09:54;1.33;;;1.00;;
3503;SDS011;1766;53.490;10.174;2023-02-28T11:11:58;0.83;;;0.83;;
3503;SDS011;1766;53.490;10.174;2023-02-28T11:14:04;1.10;;;0.97;;
3503;SDS011;1766;53.490;10.174;2023-02-28T11:16:07;1.57;;;0.97;;
3503;SDS011;1766;53.490;10.174;2023-02-28T11:18:19;2.77;;;0.97;;
3503;SDS011;1766;53.490;10.174;2023-02-28T11:20:26;3.90;;;1.67;;
3503;SDS011;1766;53.490;10.174;2023-02-28T11:22:31;1.43;;;1.00;;
3503;SDS011;1766;53.490;10.174;2023-02-28T11:24:40;0.90;;;0.80;;
3503;SDS011;1766;53.490;10.174;2023-02-28T11:26:46;2.00;;;0.73;;
3503;SDS011;1766;53.490;10.174;2023-02-28T11:28:49;3.10;;;0.93;;
3503;SDS011;1766;53.490;10.174;2023-02-28T11:31:17;3.27;;;0.80;;
3503;SDS011;1766;53.490;10.174;2023-02-28T11:33:23;2.00;;;0.83;;
3503;SDS011;1766;53.490;10.174;2023-02-28T11:35:28;3.30;;;0.80;;
3503;SDS011;1766;53.490;10.174;2023-02-28T11:37:34;3.63;;;1.07;;
3503;SDS011;1766;53.490;10.174;2023-02-28T11:39:37;2.20;;;1.00;;
3503;SDS011;1766;53.490;10.174;2023-02-28T11:41:45;2.40;;;1.00;;
3503;SDS011;1766;53.490;10.174;2023-02-28T11:44:08;3.27;;;0.80;;
3503;SDS011;1766;53.490;10.174;2023-02-28T11:46:24;1.40;;;0.60;;
3503;SDS011;1766;53.490;10.174;2023-02-28T11:48:33;1.23;;;0.90;;
3503;SDS011;1766;53.490;10.174;2023-02-28T11:50:47;0.73;;;0.70;;
3503;SDS011;1766;53.490;10.174;2023-02-28T11:53:00;1.43;;;0.70;;
3503;SDS011;1766;53.490;10.174;2023-02-28T11:55:09;1.10;;;0.80;;
3503;SDS011;1766;53.490;10.174;2023-02-28T11:57:24;1.73;;;0.90;;
3503;SDS011;1766;53.490;10.174;2023-02-28T11:59:42;0.87;;;0.73;;
3503;SDS011;1766;53.490;10.174;2023-02-28T12:02:04;0.93;;;0.87;;
3503;SDS011;1766;53.490;10.174;2023-02-28T12:04:24;0.93;;;0.80;;
3503;SDS011;1766;53.490;10.174;2023-02-28T12:06:36;1.20;;;1.10;;
3503;SDS011;1766;53.490;10.174;2023-02-28T12:08:49;1.90;;;0.90;;
3503;SDS011;1766;53.490;10.174;2023-02-28T12:11:04;1.47;;;0.90;;
3503;SDS011;1766;53.490;10.174;2023-02-28T12:13:16;1.90;;;0.80;;
3503;SDS011;1766;53.490;10.174;2023-02-28T12:15:36;2.60;;;0.80;;
3503;SDS011;1766;53.490;10.174;2023-02-28T12:18:07;0.93;;;0.93;;
3503;SDS011;1766;53.490;10.174;2023-02-28T12:20:24;1.47;;;1.00;;
3503;SDS011;1766;53.490;10.174;2023-02-28T12:22:35;2.07;;;1.10;;
3503;SDS011;1766;53.490;10.174;2023-02-28T12:24:55;1.13;;;0.73;;
3503;SDS011;1766;53.490;10.174;2023-02-28T12:27:21;1.77;;;1.10;;
3503;SDS011;1766;53.490;10.174;2023-02-28T12:29:26;0.80;;;0.80;;
3503;SDS011;1766;53.490;10.174;2023-02-28T12:31:33;1.10;;;1.00;;
3503;SDS011;1766;53.490;10.174;2023-02-28T12:33:40;1.33;;;0.90;;
3503;SDS011;1766;53.490;10.174;2023-02-28T12:35:49;1.37;;;0.77;;
3503;SDS011;1766;53.490;10.174;2023-02-28T12:37:56;0.70;;;0.70;;
3503;SDS011;1766;53.490;10.174;2023-02-28T12:40:04;1.77;;;0.90;;
3503;SDS011;1766;53.490;10.174;2023-02-28T12:42:15;2.13;;;0.93;;
3503;SDS011;1766;53.490;10.174;2023-02-28T12:44:27;3.23;;;1.00;;
3503;SDS011;1766;53.490;10.174;2023-02-28T12:46:35;1.20;;;0.90;;
3503;SDS011;1766;53.490;10.174;2023-02-28T12:48:43;2.10;;;1.10;;
3503;SDS011;1766;53.490;10.174;2023-02-28T12:50:48;1.10;;;0.93;;
3503;SDS011;1766;53.490;10.174;2023-02-28T12:52:52;2.30;;;1.17;;